createdAt,value
2022-08-11T00:02:38.372Z,14.30
2022-08-11T00:05:09.504Z,16.40
2022-08-11T00:07:52.655Z,15.30
2022-08-11T00:10:29.853Z,17.10
2022-08-11T00:13:03.774Z,11.50
2022-08-11T00:15:44.242Z,11.00
2022-08-11T00:18:13.642Z,13.50
2022-08-11T00:20:44.071Z,14.90
2022-08-11T00:23:19.842Z,11.90
2022-08-11T00:25:52.071Z,11.90
2022-08-11T00:28:34.423Z,13.10
2022-08-11T00:31:08.044Z,11.40
2022-08-11T00:33:44.518Z,12.30
2022-08-11T00:36:19.787Z,14.90
2022-08-11T00:38:52.657Z,11.10
2022-08-11T00:41:36.420Z,10.40
2022-08-11T00:46:55.857Z,10.40
2022-08-11T00:49:43.211Z,10.80
2022-08-11T00:52:28.921Z,12.70
2022-08-11T00:55:18.311Z,9.50
2022-08-11T00:58:23.401Z,10.60
2022-08-11T01:01:18.522Z,15.90
2022-08-11T01:04:01.417Z,9.20
2022-08-11T01:06:50.319Z,13.10
2022-08-11T01:09:52.153Z,18.20
2022-08-11T01:12:40.736Z,11.80
2022-08-11T01:15:37.521Z,13.00
2022-08-11T01:18:44.083Z,11.30
2022-08-11T01:21:40.310Z,15.60
2022-08-11T01:24:38.640Z,14.00
2022-08-11T01:27:49.305Z,16.70
2022-08-11T01:30:48.852Z,12.90
2022-08-11T01:33:55.766Z,12.40
2022-08-11T01:37:00.769Z,13.10
2022-08-11T01:40:09.340Z,10.10
2022-08-11T01:43:35.872Z,13.40
2022-08-11T01:46:23.632Z,15.50
2022-08-11T01:50:02.882Z,11.40
2022-08-11T01:52:03.162Z,10.40
2022-08-11T01:54:49.505Z,11.90
2022-08-11T01:57:35.444Z,9.80
2022-08-11T02:00:12.413Z,12.40
2022-08-11T02:02:58.573Z,12.80
2022-08-11T02:05:56.339Z,10.40
2022-08-11T02:08:44.182Z,11.10
2022-08-11T02:11:35.346Z,13.20
2022-08-11T02:14:10.841Z,14.10
2022-08-11T02:17:11.878Z,15.60
2022-08-11T02:20:13.850Z,14.10
2022-08-11T02:23:12.469Z,10.40
2022-08-11T02:25:58.863Z,10.10
2022-08-11T02:28:46.648Z,11.40
2022-08-11T02:32:15.768Z,11.10
2022-08-11T02:35:00.781Z,11.00
2022-08-11T02:37:34.561Z,13.20
2022-08-11T02:40:17.696Z,10.80
2022-08-11T02:42:45.633Z,12.40
2022-08-11T02:45:40.076Z,12.50
2022-08-11T02:48:43.859Z,12.50
2022-08-11T02:51:35.686Z,12.20
2022-08-11T02:54:21.429Z,9.90
2022-08-11T02:57:04.521Z,9.30
2022-08-11T02:59:51.065Z,9.50
2022-08-11T03:02:46.806Z,10.00
2022-08-11T03:05:41.887Z,12.70
2022-08-11T03:08:30.126Z,11.50
2022-08-11T03:11:26.114Z,13.10
2022-08-11T03:14:28.299Z,10.80
2022-08-11T03:17:12.931Z,11.80
2022-08-11T03:19:53.771Z,10.30
2022-08-11T03:22:38.910Z,16.20
2022-08-11T03:25:16.106Z,10.40
2022-08-11T03:27:54.074Z,13.50
2022-08-11T03:30:28.232Z,12.10
2022-08-11T03:33:37.794Z,9.40
2022-08-11T03:36:54.557Z,13.00
2022-08-11T03:39:56.127Z,10.50
2022-08-11T03:42:47.491Z,14.40
2022-08-11T03:45:57.429Z,9.30
2022-08-11T03:48:58.944Z,9.80
2022-08-11T03:51:51.525Z,13.20
2022-08-11T03:54:43.234Z,12.90
2022-08-11T03:57:44.305Z,12.90
2022-08-11T04:00:50.325Z,10.50
2022-08-11T04:03:36.401Z,10.00
2022-08-11T04:06:45.899Z,13.60
2022-08-11T04:09:47.552Z,15.00
2022-08-11T04:12:47.551Z,14.10
2022-08-11T04:15:57.395Z,9.00
2022-08-11T04:19:07.747Z,12.20
2022-08-11T04:21:35.442Z,12.20
2022-08-11T04:24:33.228Z,31.80
2022-08-11T04:27:36.925Z,16.40
2022-08-11T04:30:22.880Z,16.00
2022-08-11T04:33:36.482Z,14.00
2022-08-11T04:36:52.808Z,11.90
2022-08-11T04:39:57.392Z,18.50
2022-08-11T04:43:18.686Z,16.10
2022-08-11T04:46:06.442Z,17.80
2022-08-11T04:49:25.814Z,15.50
2022-08-11T04:52:41.653Z,16.30
2022-08-11T04:55:58.894Z,18.60
2022-08-11T04:59:03.523Z,14.70
2022-08-11T05:01:55.579Z,16.80
2022-08-11T05:04:59.983Z,17.40
2022-08-11T05:07:46.027Z,17.50
2022-08-11T05:10:25.850Z,17.30
2022-08-11T05:12:55.308Z,18.80
2022-08-11T05:16:01.334Z,19.00
2022-08-11T05:18:48.724Z,20.20
2022-08-11T05:21:44.989Z,21.80
2022-08-11T05:25:14.980Z,19.90
2022-08-11T05:28:30.075Z,23.20
2022-08-11T05:31:21.756Z,19.80
2022-08-11T05:34:11.156Z,23.20
2022-08-11T05:36:50.628Z,24.00
2022-08-11T05:39:44.634Z,19.60
2022-08-11T05:45:23.038Z,20.50
2022-08-11T05:48:10.324Z,22.50
2022-08-11T05:50:58.619Z,22.00
2022-08-11T05:53:46.259Z,22.60
2022-08-11T05:56:21.044Z,21.50
2022-08-11T05:58:53.634Z,22.50
2022-08-11T06:01:23.481Z,23.10
2022-08-11T06:04:13.623Z,15.30
2022-08-11T06:06:57.966Z,16.90
2022-08-11T06:09:34.934Z,16.30
2022-08-11T06:12:15.985Z,20.90
2022-08-11T06:14:46.236Z,17.60
2022-08-11T06:17:14.682Z,13.60
2022-08-11T06:19:47.710Z,15.80
2022-08-11T06:22:21.825Z,14.80
2022-08-11T06:25:01.590Z,16.60
2022-08-11T06:27:35.497Z,14.60
2022-08-11T06:30:15.563Z,15.20
2022-08-11T06:32:51.495Z,16.00
2022-08-11T06:35:46.279Z,13.00
2022-08-11T06:38:32.257Z,12.10
2022-08-11T06:41:26.443Z,15.30
2022-08-11T06:44:07.655Z,16.00
2022-08-11T06:46:41.791Z,11.70
2022-08-11T06:49:30.697Z,15.00
2022-08-11T06:52:34.777Z,15.20
2022-08-11T06:55:07.639Z,14.70
2022-08-11T06:57:58.186Z,15.40
2022-08-11T07:00:29.666Z,16.20
2022-08-11T07:03:11.805Z,17.40
2022-08-11T07:06:06.563Z,15.70
2022-08-11T07:09:06.065Z,17.40
2022-08-11T07:12:08.852Z,14.30
2022-08-11T07:15:00.922Z,15.50
2022-08-11T07:17:32.012Z,14.20
2022-08-11T07:20:21.679Z,11.40
2022-08-11T07:23:13.720Z,12.60
2022-08-11T07:26:02.168Z,8.40
2022-08-11T07:28:52.661Z,12.90
2022-08-11T07:31:29.386Z,12.40
2022-08-11T07:34:19.379Z,13.20
2022-08-11T07:36:53.700Z,17.70
2022-08-11T07:39:27.445Z,13.40
2022-08-11T07:41:58.520Z,14.10
2022-08-11T07:44:35.087Z,12.40
2022-08-11T07:47:22.092Z,18.90
2022-08-11T07:50:12.834Z,8.60
2022-08-11T07:52:40.958Z,10.90
2022-08-11T07:55:14.673Z,13.30
2022-08-11T07:58:16.164Z,18.90
2022-08-11T08:01:22.335Z,12.40
2022-08-11T08:04:10.332Z,10.00
2022-08-11T08:06:57.679Z,6.30
2022-08-11T08:09:44.541Z,8.70
2022-08-11T08:12:31.975Z,10.10
2022-08-11T08:15:20.249Z,5.10
2022-08-11T08:18:09.476Z,5.00
2022-08-11T08:20:50.674Z,8.40
2022-08-11T08:23:34.354Z,9.40
2022-08-11T08:26:26.252Z,9.80
2022-08-11T08:29:16.581Z,6.30
2022-08-11T08:31:48.531Z,5.30
2022-08-11T08:34:17.731Z,4.20
2022-08-11T08:36:49.423Z,5.70
2022-08-11T08:39:22.033Z,4.90
2022-08-11T08:41:54.868Z,5.80
2022-08-11T08:44:41.534Z,4.50
2022-08-11T08:47:43.069Z,2.90
2022-08-11T08:50:16.634Z,5.80
2022-08-11T08:53:12.023Z,4.60
2022-08-11T08:55:45.322Z,2.40
2022-08-11T08:58:15.951Z,5.30
2022-08-11T09:00:46.854Z,5.40
2022-08-11T09:03:39.902Z,6.20
2022-08-11T09:06:03.110Z,4.60
2022-08-11T09:08:33.864Z,4.20
2022-08-11T09:11:22.788Z,2.00
2022-08-11T09:14:04.874Z,2.80
2022-08-11T09:16:39.263Z,5.40
2022-08-11T09:19:08.273Z,6.60
2022-08-11T09:21:48.150Z,8.00
2022-08-11T09:24:38.384Z,6.40
2022-08-11T09:27:08.490Z,4.60
2022-08-11T09:29:38.769Z,6.10
2022-08-11T09:32:08.487Z,6.00
2022-08-11T09:34:37.497Z,8.10
2022-08-11T09:37:55.803Z,6.10
2022-08-11T09:42:23.616Z,6.10
2022-08-11T09:43:39.194Z,8.20
2022-08-11T09:46:08.950Z,4.20
2022-08-11T09:48:40.568Z,8.70
2022-08-11T09:51:10.080Z,6.40
2022-08-11T09:54:02.673Z,4.70
2022-08-11T09:56:50.639Z,11.40
2022-08-11T09:59:22.014Z,9.20
2022-08-11T10:01:57.086Z,12.10
2022-08-11T10:04:32.881Z,6.10
2022-08-11T10:07:04.461Z,5.00
2022-08-11T10:09:38.389Z,9.30
2022-08-11T10:12:10.980Z,12.70
2022-08-11T10:17:33.154Z,4.00
2022-08-11T10:20:05.900Z,4.20
2022-08-11T10:22:54.247Z,12.20
2022-08-11T10:25:41.227Z,7.60
2022-08-11T10:28:28.583Z,5.60
2022-08-11T10:31:17.283Z,16.40
2022-08-11T10:34:03.570Z,12.50
2022-08-11T10:36:34.218Z,8.10
2022-08-11T10:39:06.302Z,9.20
2022-08-11T10:42:06.837Z,6.30
2022-08-11T10:44:44.646Z,6.50
2022-08-11T10:47:34.061Z,7.10
2022-08-11T10:50:22.556Z,3.70
2022-08-11T10:53:09.333Z,6.80
2022-08-11T10:55:58.633Z,7.20
2022-08-11T10:58:45.945Z,4.00
2022-08-11T11:01:15.870Z,4.40
2022-08-11T11:03:44.595Z,5.90
2022-08-11T11:06:29.433Z,5.50
2022-08-11T11:09:14.887Z,6.20
2022-08-11T11:12:11.522Z,3.90
2022-08-11T11:15:01.018Z,5.40
2022-08-11T11:18:04.921Z,5.50
2022-08-11T11:20:47.171Z,7.00
2022-08-11T11:23:32.843Z,6.50
2022-08-11T11:26:14.503Z,4.60
2022-08-11T11:29:03.240Z,4.50
2022-08-11T11:31:38.807Z,5.30
2022-08-11T11:34:20.120Z,3.20
2022-08-11T11:36:51.758Z,8.30
2022-08-11T11:39:25.577Z,6.10
2022-08-11T11:42:03.349Z,8.00
2022-08-11T11:44:32.725Z,9.90
2022-08-11T11:47:01.484Z,11.70
2022-08-11T11:49:32.475Z,11.50
2022-08-11T11:52:01.259Z,10.50
2022-08-11T11:54:31.893Z,6.80
2022-08-11T11:57:21.727Z,7.40
2022-08-11T12:00:10.637Z,9.10
2022-08-11T12:02:40.765Z,6.10
2022-08-11T12:05:10.354Z,5.00
2022-08-11T12:08:10.426Z,6.10
2022-08-11T12:10:47.750Z,5.10
2022-08-11T12:13:37.586Z,4.70
2022-08-11T12:16:32.825Z,7.00
2022-08-11T12:18:57.093Z,3.50
2022-08-11T12:21:26.439Z,6.50
2022-08-11T12:24:15.505Z,6.60
2022-08-11T12:27:15.051Z,7.00
2022-08-11T12:29:41.145Z,8.20
2022-08-11T12:32:12.328Z,7.30
2022-08-11T12:34:40.402Z,7.00
2022-08-11T12:37:13.719Z,8.30
2022-08-11T12:40:16.553Z,7.10
2022-08-11T12:43:36.930Z,6.10
2022-08-11T12:46:10.643Z,6.80
2022-08-11T12:49:04.239Z,6.20
2022-08-11T12:52:01.432Z,3.50
2022-08-11T12:54:51.926Z,12.00
2022-08-11T12:58:04.347Z,5.50
2022-08-11T13:00:51.844Z,10.00
2022-08-11T13:03:39.815Z,6.00
2022-08-11T13:06:08.020Z,9.90
2022-08-11T13:08:39.522Z,4.80
2022-08-11T13:11:56.199Z,7.00
2022-08-11T13:14:17.122Z,10.00
2022-08-11T13:17:05.379Z,7.30
2022-08-11T13:19:34.633Z,3.60
2022-08-11T13:22:07.484Z,4.80
2022-08-11T13:24:36.628Z,5.70
2022-08-11T13:27:05.075Z,5.70
2022-08-11T13:29:33.323Z,7.10
2022-08-11T13:32:01.153Z,7.30
2022-08-11T13:34:31.415Z,5.20
2022-08-11T13:37:02.171Z,6.90
2022-08-11T13:39:32.418Z,10.60
2022-08-11T13:42:02.597Z,7.10
2022-08-11T13:44:33.472Z,5.30
2022-08-11T13:47:04.469Z,4.70
2022-08-11T13:49:35.918Z,6.60
2022-08-11T13:52:06.693Z,6.90
2022-08-11T13:54:38.565Z,7.20
2022-08-11T13:57:13.649Z,6.10
2022-08-11T14:00:09.701Z,27.30
2022-08-11T14:02:43.698Z,6.70
2022-08-11T14:05:18.136Z,7.80
2022-08-11T14:07:52.352Z,5.40
2022-08-11T14:10:25.437Z,6.50
2022-08-11T14:15:49.547Z,5.50
2022-08-11T14:18:20.474Z,7.80
2022-08-11T14:21:13.841Z,3.40
2022-08-11T14:23:45.823Z,5.00
2022-08-11T14:26:29.614Z,9.20
2022-08-11T14:29:11.106Z,9.60
2022-08-11T14:31:45.693Z,9.70
2022-08-11T14:34:14.739Z,11.90
2022-08-11T14:36:47.315Z,12.20
2022-08-11T14:39:18.239Z,9.00
2022-08-11T14:42:13.397Z,8.60
2022-08-11T14:45:24.230Z,6.80
2022-08-11T14:47:54.856Z,12.20
2022-08-11T14:50:26.004Z,9.00
2022-08-11T14:52:58.332Z,10.60
2022-08-11T14:55:47.623Z,12.00
2022-08-11T14:58:18.502Z,8.40
2022-08-11T15:00:47.481Z,6.90
2022-08-11T15:03:15.849Z,8.40
2022-08-11T15:05:58.329Z,8.90
2022-08-11T15:08:48.754Z,7.40
2022-08-11T15:11:37.537Z,12.20
2022-08-11T15:14:08.007Z,13.40
2022-08-11T15:17:00.733Z,9.60
2022-08-11T15:19:40.182Z,7.70
2022-08-11T15:22:29.379Z,9.50
2022-08-11T15:25:02.758Z,13.40
2022-08-11T15:30:36.716Z,10.90
2022-08-11T15:33:25.791Z,11.60
2022-08-11T15:36:14.127Z,8.80
2022-08-11T15:38:47.719Z,9.80
2022-08-11T15:41:37.000Z,9.00
2022-08-11T15:44:51.371Z,10.20
2022-08-11T15:47:20.455Z,10.90
2022-08-11T15:50:10.861Z,7.00
2022-08-11T15:52:48.451Z,8.20
2022-08-11T15:55:17.008Z,12.30
2022-08-11T15:58:07.315Z,18.50
2022-08-11T16:00:58.929Z,9.70
2022-08-11T16:04:08.222Z,7.40
2022-08-11T16:06:47.146Z,16.10
2022-08-11T16:09:33.815Z,15.10
2022-08-11T16:12:23.167Z,11.90
2022-08-11T16:15:20.873Z,12.70
2022-08-11T16:17:52.155Z,11.00
2022-08-11T16:20:23.424Z,7.90
2022-08-11T16:23:00.507Z,11.10
2022-08-11T16:27:05.988Z,10.90
2022-08-11T16:28:27.021Z,11.00
2022-08-11T16:30:56.639Z,14.30
2022-08-11T16:33:48.623Z,15.40
2022-08-11T16:36:34.763Z,11.10
2022-08-11T16:39:04.246Z,9.40
2022-08-11T16:41:53.286Z,11.60
2022-08-11T16:44:41.076Z,10.00
2022-08-11T16:47:14.147Z,12.60
2022-08-11T16:49:52.784Z,13.40
2022-08-11T16:52:23.735Z,12.10
2022-08-11T16:54:52.883Z,9.50
2022-08-11T16:57:44.691Z,12.50
2022-08-11T17:00:17.916Z,14.40
2022-08-11T17:05:55.436Z,13.50
2022-08-11T17:08:57.577Z,11.70
2022-08-11T17:11:47.518Z,10.80
2022-08-11T17:14:35.785Z,13.80
2022-08-11T17:17:13.510Z,12.90
2022-08-11T17:20:38.535Z,11.60
2022-08-11T17:23:01.462Z,13.20
2022-08-11T17:25:32.385Z,11.30
2022-08-11T17:28:24.557Z,14.00
2022-08-11T17:31:21.724Z,24.40
2022-08-11T17:34:11.969Z,12.40
2022-08-11T17:36:45.502Z,10.90
2022-08-11T17:39:15.267Z,10.60
2022-08-11T17:42:03.545Z,12.00
2022-08-11T17:44:51.905Z,10.90
2022-08-11T17:47:38.860Z,7.40
2022-08-11T17:50:16.700Z,10.00
2022-08-11T17:53:06.306Z,13.20
2022-08-11T17:55:54.836Z,10.20
2022-08-11T17:58:43.332Z,13.80
2022-08-11T18:01:12.518Z,9.30
2022-08-11T18:03:41.865Z,10.80
2022-08-11T18:06:21.791Z,8.80
2022-08-11T18:09:24.417Z,6.90
2022-08-11T18:12:13.140Z,7.60
2022-08-11T18:15:04.876Z,7.90
2022-08-11T18:17:52.619Z,10.60
2022-08-11T18:20:39.582Z,13.10
2022-08-11T18:23:41.680Z,7.70
2022-08-11T18:26:39.197Z,9.60
2022-08-11T18:29:26.724Z,9.30
2022-08-11T18:32:21.211Z,8.20
2022-08-11T18:35:13.300Z,11.10
2022-08-11T18:38:04.850Z,17.90
2022-08-11T18:40:54.133Z,13.20
2022-08-11T18:43:43.058Z,9.00
2022-08-11T18:46:32.770Z,10.50
2022-08-11T18:49:34.260Z,9.60
2022-08-11T18:52:36.770Z,9.10
2022-08-11T18:55:28.197Z,11.00
2022-08-11T18:58:16.501Z,9.60
2022-08-11T19:01:04.892Z,12.10
2022-08-11T19:03:54.258Z,9.80
2022-08-11T19:06:42.742Z,11.30
2022-08-11T19:09:33.358Z,8.90
2022-08-11T19:12:20.642Z,13.20
2022-08-11T19:15:09.183Z,10.90
2022-08-11T19:18:00.255Z,9.70
2022-08-11T19:20:49.639Z,12.30
2022-08-11T19:23:43.544Z,11.90
2022-08-11T19:30:04.857Z,13.20
2022-08-11T19:32:30.580Z,11.00
2022-08-11T19:35:19.724Z,9.40
2022-08-11T19:38:08.349Z,10.00
2022-08-11T19:40:57.780Z,16.80
2022-08-11T19:43:49.281Z,12.60
2022-08-11T19:46:41.531Z,13.80
2022-08-11T19:49:30.105Z,15.10
2022-08-11T19:52:19.149Z,13.90
2022-08-11T19:55:08.061Z,17.60
2022-08-11T19:57:57.619Z,13.50
2022-08-11T20:00:44.984Z,14.70
2022-08-11T20:03:32.552Z,15.80
2022-08-11T20:06:23.485Z,17.00
2022-08-11T20:09:19.484Z,16.70
2022-08-11T20:12:12.283Z,14.30
2022-08-11T20:15:00.767Z,14.10
2022-08-11T20:17:53.561Z,15.90
2022-08-11T20:20:43.893Z,15.30
2022-08-11T20:23:33.465Z,12.30
2022-08-11T20:26:30.789Z,11.40
2022-08-11T20:29:18.973Z,14.40
2022-08-11T20:32:09.280Z,16.60
2022-08-11T20:34:58.290Z,18.10
2022-08-11T20:37:50.385Z,13.00
2022-08-11T20:40:42.585Z,15.30
2022-08-11T20:44:06.180Z,11.60
2022-08-11T20:46:44.047Z,12.80
2022-08-11T20:49:42.314Z,12.60
2022-08-11T20:52:37.730Z,17.20
2022-08-11T20:55:46.253Z,10.70
2022-08-11T20:59:04.046Z,15.50
2022-08-11T21:01:44.478Z,13.70
2022-08-11T21:04:31.272Z,12.40
2022-08-11T21:07:28.749Z,13.10
2022-08-11T21:10:24.024Z,11.50
2022-08-11T21:13:25.187Z,14.00
2022-08-11T21:16:25.345Z,11.70
2022-08-11T21:20:00.719Z,17.60
2022-08-11T21:22:33.446Z,14.10
2022-08-11T21:25:20.729Z,11.20
2022-08-11T21:28:09.187Z,16.80
2022-08-11T21:30:58.006Z,28.10
2022-08-11T21:33:49.931Z,16.90
2022-08-11T21:36:37.770Z,14.80
2022-08-11T21:39:26.636Z,13.70
2022-08-11T21:42:13.927Z,12.90
2022-08-11T21:45:01.944Z,12.60
2022-08-11T21:48:00.712Z,13.90
2022-08-11T21:50:48.346Z,12.10
2022-08-11T21:53:35.883Z,10.40
2022-08-11T21:56:25.563Z,14.60
2022-08-11T21:59:16.100Z,13.00
2022-08-11T22:02:06.160Z,14.90
2022-08-11T22:04:55.420Z,11.90
2022-08-11T22:07:42.741Z,13.90
2022-08-11T22:10:40.632Z,13.50
2022-08-11T22:13:30.881Z,13.10
2022-08-11T22:16:19.298Z,11.40
2022-08-11T22:19:09.615Z,16.60
2022-08-11T22:22:03.372Z,14.90
2022-08-11T22:24:53.434Z,12.20
2022-08-11T22:27:40.367Z,12.40
2022-08-11T22:30:29.208Z,12.70
2022-08-11T22:33:25.639Z,12.60
2022-08-11T22:36:16.551Z,13.30
2022-08-11T22:39:04.075Z,11.30
2022-08-11T22:41:50.834Z,12.30
2022-08-11T22:44:37.146Z,11.90
2022-08-11T22:47:23.833Z,10.20
2022-08-11T22:50:16.468Z,10.70
2022-08-11T22:53:05.266Z,11.80
2022-08-11T22:55:52.237Z,10.50
2022-08-11T22:58:40.321Z,14.30
2022-08-11T23:01:27.611Z,14.30
2022-08-11T23:04:15.102Z,13.00
2022-08-11T23:07:02.080Z,12.20
2022-08-11T23:09:49.342Z,11.80
2022-08-11T23:12:37.178Z,12.60
2022-08-11T23:15:24.670Z,13.50
2022-08-11T23:18:11.439Z,14.20
2022-08-11T23:20:58.989Z,15.20
2022-08-11T23:23:47.478Z,13.00
2022-08-11T23:26:37.422Z,13.30
2022-08-11T23:29:26.181Z,14.60
2022-08-11T23:32:13.664Z,13.60
2022-08-11T23:35:38.916Z,11.90
2022-08-11T23:38:11.245Z,11.20
2022-08-11T23:40:57.629Z,15.10
2022-08-11T23:43:44.009Z,13.30
2022-08-11T23:46:30.247Z,15.50
2022-08-11T23:49:21.491Z,12.90
2022-08-11T23:52:08.572Z,16.80
2022-08-11T23:54:56.380Z,16.00
2022-08-11T23:57:49.018Z,14.10
